You are not logged in, Click here to log in
峴港國際機場 DAD / VVDN Duy Tân, Hòa Thuận Tây, Quận Hải Châu, Đà Nẵng, 越南
ICAO: VVDN Country: Duy Tân, Hòa Thuận Tây, Quận Hải Châu, Đà Nẵng, 越南
Latitude: 16.0553 Longitude: 108.201
Total Arrivals: 10 Total Departures: 6
Latest Arrival: FS23 (VDSR-VVDN)CHU. CHUHAO Latest Departure: JX702 (VVDN-RCTP)ALAN. LIU
Scenery:
METAR : VVDN 271700Z 32009G20KT 4500 -RA SCT010 FEW015CB OVC050 24/22 Q1006 NOSIG

峴港國際機場 DAD

You are accessing this site from IP address 54.236.35.159. Virtual Airline. CMS by phpVMS.Website designed by Zumeweb and edited by Theo Bearman.
There is 0 User(s) Online: | and 13 Guest(s) Online.
All information on this site is for fight simulation purposes only. This site is for flight logging for pilots of Virtual Airline&模擬飛行論壇 FlySim only.